LEAS
43.33.81N 006.02.07W
IN63XN aprs.fi
zuletzt gehoert:
2021-01-10T16:30:07Z
zuerst gehoert:
2020-02-23T15:37:53Z

Wind 090°/006kn
in Böen bis zu 000kn
Temp 7.78C
Regen 0.0mm
letzte 24h 0.0mm
seit Mitternacht 0.0mm
Baro 1023.0h
Feuchte 66%

APRS Castrillón [IN63XN], 0 Stunde(n), LEAS [14:13:37, 0s].
EA1DHE 43.33.98N 005.58.57WIN73AN 4.754km 79°E12:05:20ZMMDVM DVS 434.3500/434.3500 CC1
EA1IZV 43.33.25N 005.55.92WIN73AN 8.219km 93°E11:45:03ZEn proceso...
EA1AHA 43.32.74N 005.54.36WIN73BN 10.395km 98°E12:01:28ZWind 000°/011kn, Böen bis 013kn, Temp 21.67c, Regen 0.0mm, letzte 24h 0.0mm, seit 0h 0.0mm, Baro 1023.9h, Hum: 67%(3EA1AHA-13)
MMDVM MMDVM HS Hat 432.0000/432.0000 CC1(2EA1AHA)
ED1ZAY 43.29.47N 005.56.54WIN73AL 10.466km 135°SE12:05:50ZRD625 438.3000/430.7000 CC1
EC1KV 43.34.01N 006.16.01WIN63UN 18.780km 273°W11:58:11Z VOLT.=13.6 V - TEMP.=??.? C(3EC1KV-1)
LEGM 43.26.15N 005.49.84WIN73CK 21.290km 130°SE12:00:27ZHelipuerto de La Morgal: LEAS 121130Z 08009KT 020V120 9999 FEW016 BKN021 20/16 Q1023 NOSIG=
LEMR 43.25.83N 005.49.60WIN73CK 21.921km 130°SE12:00:27ZAerodromo de la Morgal: LEAS 121130Z 08009KT 020V120 9999 FEW016 BKN021 20/16 Q1023 NOSIG=
ED1ZAU 43.23.04N 005.52.75WIN73BJ 23.031km 147°SSE12:05:53ZRD625 438.5000/430.9000 CC1
EA1IN 43.25.16N 005.47.43WIN73CK 24.967km 128°SE12:05:15ZMMDVM MMDVM HS Hat 434.7000/434.7000 CC1
EA1YR 43.22.09N 005.51.86WIN73BI 25.145km 147°SSE12:05:10ZMMDVM DVS 434.3500/434.3500 CC1
LEHU 43.22.63N 005.49.57WIN73CJ 26.182km 140°SE12:00:27ZHelipuerto del HUCA: LEAS 121130Z 08009KT 020V120 9999 FEW016 BKN021 20/16 Q1023 NOSIG=
33D00 43.21.63N 005.51.13WIN73BI 26.420km 146°SE12:03:33Z33-D-00 Protección Civil REMER / Delegación del Gobierno en Asturias
EB1TK 43.32.22N 005.42.32WIN73DM 26.589km 95°E12:07:38ZWind 043°/009kn, Böen bis 014kn, Temp 19.44c, Regen 0.0mm, letzte 24h 0.0mm, seit 0h 0.0mm, Baro 1026.0h, Hum: 83%(3EB1TK-13)
LEEL 43.32.98N 005.41.71WIN73DN 27.306km 92°E12:00:27ZHelipuerto de El Musel: LEAS 121130Z 08009KT 020V120 9999 FEW016 BKN021 20/16 Q1023 NOSIG=
EA1L 43.20.37N 005.51.13WIN73BI 28.377km 149°SSE12:10:47Zea1l@ure.es V=11.8V,T=??.?C
Wind 034°/003kn, Böen bis 014kn, Temp 22.78c, Regen 0.0mm, letzte 24h 0.0mm, seit 0h 0.0mm, Baro 1020.6h, Hum: 79%(2EA1L-13)
EA1IEJ 43.31.81N 005.40.64WIN73DM 28.910km 96°E12:03:01ZMMDVM MMDVM HS Hat 438.8500/438.8500 CC6
EA1DZR 43.31.47N 005.40.00WIN73DM 29.828km 97°E12:05:30ZMMDVM DVS 434.3500/434.3500 CC1
EB1CAM 43.18.62N 005.52.19WIN73BH 30.553km 154°SSE11:43:50ZEB1CAM por ahi(3EB1CAM-9)
ED1ZAE 43.27.99N 005.40.54WIN73DL 30.624km 109°ESE12:10:07ZWIDE3-3 ESAS3-3 IN73DL WWW.EA1URG.ORG(3ED1ZAE-3)
ED1ZAS 43.27.52N 005.40.17WIN73DL 31.385km 110°ESE12:05:45ZRD985 438.2250/430.6250 CC1
EB1GEM 43.30.00N 005.36.07WIN73EM 35.481km 100°E11:57:36ZWX3in1Plus2.0 U=13.3V,T=??.?C/??.?F(3EB1GEM-3)
LETN 43.20.05N 006.22.69WIN63TI 37.312km 228°SW12:00:27ZAerodromo de La Curiscada (Tineo): LEAS 121130Z 08009KT 020V120 9999 FEW016 BKN021 20/16 Q1023 NOSIG=
EA1JBE 43.14.74N 005.46.75WIN73CF 40.362km 149°SSE11:16:06Z145.750MHz P. Máx.: 10W / QRV R6(3EA1JBE-9)
EA1FLQ 43.22.00N 005.36.35WIN73EI 40.571km 121°ESE12:01:30ZMMDVM DVMega 439.9750/439.9750 CC5
EA1IMW 43.14.36N 005.46.93WIN73CF 40.865km 150°SSE12:04:57ZGRUPO RADIO GALENA (GRG) 433.4500/433.4500 CC1
EA1HJA 43.28.10N 005.30.45WIN73FL 43.610km 103°ESE11:52:39Z] EA1HJA@QSL.NET=(3EA1HJA-9)
EA1HJA@URE.ES(2EA1HJA)
IN73FL WX3IN1+ 2.0 - V=13.3V,TX TEMP=34.6C(2EA1HJA-2)
EA1JBL 43.12.28N 005.47.42WIN73CE 43.929km 153°SSE12:04:36ZMMDVM DVMega 435.3000/435.3000 CC1
EA1HWA 43.12.00N 005.47.40WIN73CE 44.429km 154°SSE12:04:25ZMMDVM MMDVM HS Hat 433.4500/433.4500 CC1
EA1RCG 43.09.45N 005.49.78WIN73CD 47.481km 160°SSE12:04:52ZGRUPO RADIO GALENA (GRG) 433.4500/433.4500 CC1
EA1JAY 43.29.33N 005.26.78WIN73GL 47.995km 99°E12:00:29Z434.525MHz Nodo TETRA DMO(3EA1JAY-4)
EA1JAY(2EA1JAY-2)
EA1FHR 43.28.72N 005.26.41WIN73GL 48.672km 100°E12:02:54ZMMDVM MMDVM HS Hat 439.1500/439.1500 CC1
EA1HWD 43.28.96N 005.26.30WIN73GL 48.751km 100°E12:03:58Z144.575FM Local frecuency VHF. 434.2500/434.2500 CC1
ED1YBE 43.29.09N 006.38.69WIN63QL 49.907km 261°W12:05:54ZWIDE3-3 ESAS3-3 UIDIGI(3ED1YBE-3)

aprs.pl 5.0.011w DL3EL © 2006-2021 [453608]